Wakefield, VA

6:22 AM EDT on October 01, 2016 (GMT -0400)
Wakefield Municipal | | Change Station

Elev 112 ft 36.98 °N, 77.01 °W | Updated 7 minutes ago

Overcast
Overcast
73 °F
Feels Like 73 °F
N
0
Wind Variable Wind from North

Today
High -- | Low -- °F
--% Chance of Precip.
Yesterday
High -- | Low -- °F
Precip. -- in
Pressure 30.05 in
Visibility 5.0 miles
Clouds Mostly Cloudy 500 ft
Overcast 1100 ft
Dew Point 72 °F
Humidity 96%
Rainfall 0.00 in
Snow Depth Not available.
7:03 AM 6:50 PM
New Moon, 0% visible
SPECI KAKQ 011015Z AUTO 00000KT 5SM BR BKN005 OVC011 23/22 A3005 RMK AO2 LTG DSNT NE CIG 004V008 T02280222 $
Pressure 30.05 in
Visibility 5.0 miles
Clouds Mostly Cloudy 500 ft
Overcast 1100 ft
Dew Point 72 °F
Humidity 96%
Rainfall 0.00 in
Snow Depth Not available.
7:03 AM 6:50 PM
New Moon, 0% visible
SPECI KAKQ 011015Z AUTO 00000KT 5SM BR BKN005 OVC011 23/22 A3005 RMK AO2 LTG DSNT NE CIG 004V008 T02280222 $

10-Day Weather Forecast

Almanac

Astronomy

Oct. 01, 2016 Rise Set
Actual Time
Civil Twilight
Nautical Twilight
Astronomical Twilight
Moon
Length of Visible Light
Length of Day
Tomorrow will be .
, % of the Moon is Illuminated

Today's Extremes

State Highs State Lows

Community

WunderPhotos

Upload Photos

1,942,908 photos uploaded!

WunderBlog® & News

Nearby

Air Quality

  Air Quality AQ Index Pollutant
Not available.

Snow Depth

Station Depth Elevation

Earthquake Activity

City Distance Mag. Time & Date
Minimum magnitude displayed is 2.5.

Coastal Water Temperatures

Place Temperature

Stations

Nearby Weather Stations

Station Location Temp. Windchill Dew Point Humidity Wind Precip. Elev Updated Type
                   

Watches & Warnings

There are currently no watches in effect.